Impacts TAF Board
For situational awareness. Not to be used for flight planning purposes.
IDs:

KTCC - Tucumcari Muni, NM, US

Issued at 1803 UTC 01 Feb 2023
Updated at 2309 UTC 01 Feb 2023
Potential Impact None Slight Moderate High
Time2253Z 02/00Z 02/01Z 02/02Z 02/03Z 02/04Z 02/05Z 02/06Z 02/07Z 02/08Z 02/09Z 02/10Z 02/11Z 02/12Z>>
Type OBS PRVL PRVL PRVL PRVL PRVL PRVL PRVL PRVL PRVL PRVL PRVL PRVL PRVL
VIS 10 >6 >6 >6 >6 >6 >6 >6 >6 >6 >6 >6 >6 >6
CIG -- 200 200 200 200 200 200 200 150 150 150 150 150 150
Cover CLR BKN BKN BKN BKN BKN BKN BKN BKN BKN BKN BKN BKN BKN
FltCat VFR VFR VFR VFR VFR VFR VFR VFR VFR VFR VFR VFR VFR VFR
WX -- -- -- -- -- -- -- -- -- -- -- -- -- --
WDir 90 190 190 190 190 190 190 190 310 310 310 310 310 310
WSpd 10 6 6 6 6 6 6 6 6 6 6 6 6 6
WGst -- -- -- -- -- -- -- -- -- -- -- -- -- --
WSHgt -- -- -- -- -- -- -- -- -- -- -- -- -- --
WSDir -- -- -- -- -- -- -- -- -- -- -- -- -- --
WSSpd -- -- -- -- -- -- -- -- -- -- -- -- -- --
R03/21
XWnd -7 -3 -3 -3 -3 -3 -3 -3 6 6 6 6 6 6
HWnd 7 -5 -5 -5 -5 -5 -5 -5 -1 -1 -1 -1 -1 -1
R08/26
XWnd 0 -6 -6 -6 -6 -6 -6 -6 4 4 4 4 4 4
HWnd 10 -1 -1 -1 -1 -1 -1 -1 -5 -5 -5 -5 -5 -5

NOTE: LAMP data beyond the time of the TAF data is denoted as LAMP in Type and colored magenta.

Raw TAF
KTCC 011803Z 0118/0218 25008KT P6SM SCT008 BKN200
  FM012000 22010KT P6SM BKN200
  FM012300 19006KT P6SM FEW015 BKN200
  FM020700 31006KT P6SM SCT015 BKN150


Raw METAR
KTCC 012253Z AUTO 09010KT 10SM CLR 07/M03 A3004 RMK AO2 SLP178 T00671033
KTCC 012153Z AUTO 12010KT 10SM CLR 08/M03 A3003 RMK AO2 SLP175 T00781033
KTCC 012053Z AUTO 07004KT 10SM CLR 07/M02 A3004 RMK AO2 SLP181 T00671022 56025

METAR Board
Radar Display
Forecast Discussion

For situational awareness. Not to be used for flight planning purposes.